createdAt,value
2023-05-19T00:01:00.533Z,8.41
2023-05-19T00:03:27.475Z,8.47
2023-05-19T00:05:54.445Z,8.44
2023-05-19T00:08:24.496Z,8.40
2023-05-19T00:10:51.515Z,8.28
2023-05-19T00:13:18.420Z,8.22
2023-05-19T00:15:46.653Z,8.22
2023-05-19T00:18:14.160Z,8.15
2023-05-19T00:20:41.385Z,8.07
2023-05-19T00:23:08.004Z,8.06
2023-05-19T00:25:34.601Z,8.01
2023-05-19T00:28:02.449Z,8.04
2023-05-19T00:30:32.129Z,7.95
2023-05-19T00:32:58.902Z,7.92
2023-05-19T00:35:25.661Z,7.88
2023-05-19T00:37:52.186Z,7.82
2023-05-19T00:40:18.969Z,7.73
2023-05-19T00:42:45.598Z,7.65
2023-05-19T00:45:12.287Z,7.65
2023-05-19T00:47:39.384Z,7.61
2023-05-19T00:50:06.316Z,7.60
2023-05-19T00:52:32.913Z,7.59
2023-05-19T00:54:59.929Z,7.54
2023-05-19T00:57:27.094Z,7.59
2023-05-19T00:59:54.093Z,7.57
2023-05-19T01:02:21.514Z,7.51
2023-05-19T01:04:48.896Z,7.45
2023-05-19T01:07:16.388Z,7.39
2023-05-19T01:09:42.965Z,7.33
2023-05-19T01:12:09.631Z,7.30
2023-05-19T01:14:36.173Z,7.32
2023-05-19T01:17:18.860Z,7.28
2023-05-19T01:19:56.270Z,7.33
2023-05-19T01:22:58.348Z,7.28
2023-05-19T01:25:45.652Z,7.30
2023-05-19T01:28:30.152Z,7.25
2023-05-19T01:30:59.452Z,7.22
2023-05-19T01:33:28.560Z,7.18
2023-05-19T01:35:55.883Z,7.13
2023-05-19T01:38:24.856Z,7.15
2023-05-19T01:40:52.333Z,7.12
2023-05-19T01:43:21.491Z,7.09
2023-05-19T01:45:49.019Z,7.02
2023-05-19T01:48:16.472Z,7.00
2023-05-19T01:50:43.098Z,7.04
2023-05-19T01:53:10.805Z,7.03
2023-05-19T01:55:48.305Z,7.01
2023-05-19T01:58:14.880Z,7.05
2023-05-19T02:00:53.210Z,7.11
2023-05-19T02:03:47.072Z,7.18
2023-05-19T02:06:22.378Z,7.22
2023-05-19T02:09:04.258Z,7.23
2023-05-19T02:11:51.477Z,7.26
2023-05-19T02:14:22.467Z,7.23
2023-05-19T02:16:49.307Z,7.24
2023-05-19T02:19:28.111Z,7.16
2023-05-19T02:21:54.930Z,7.12
2023-05-19T02:24:22.781Z,7.05
2023-05-19T02:26:53.631Z,7.02
2023-05-19T02:29:21.014Z,7.00
2023-05-19T02:31:48.607Z,6.98
2023-05-19T02:34:15.470Z,6.92
2023-05-19T02:36:45.797Z,6.82
2023-05-19T02:39:12.901Z,6.74
2023-05-19T02:41:39.446Z,6.67
2023-05-19T02:44:06.018Z,6.62
2023-05-19T02:46:32.803Z,6.54
2023-05-19T02:48:59.556Z,6.47
2023-05-19T02:51:26.227Z,6.46
2023-05-19T02:53:52.806Z,6.43
2023-05-19T02:56:19.348Z,6.43
2023-05-19T02:58:45.860Z,6.43
2023-05-19T03:01:12.363Z,6.48
2023-05-19T03:03:39.006Z,6.54
2023-05-19T03:06:08.749Z,6.55
2023-05-19T03:08:36.221Z,6.56
2023-05-19T03:11:03.372Z,6.51
2023-05-19T03:13:29.944Z,6.51
2023-05-19T03:15:58.780Z,6.52
2023-05-19T03:18:26.589Z,6.51
2023-05-19T03:20:56.591Z,6.50
2023-05-19T03:23:23.119Z,6.57
2023-05-19T03:25:49.721Z,6.61
2023-05-19T03:28:17.185Z,6.65
2023-05-19T03:30:43.823Z,6.73
2023-05-19T03:33:10.614Z,6.82
2023-05-19T03:35:37.327Z,6.87
2023-05-19T03:38:03.828Z,6.91
2023-05-19T03:40:30.473Z,6.92
2023-05-19T03:42:57.124Z,6.88
2023-05-19T03:45:23.741Z,6.85
2023-05-19T03:47:50.316Z,6.81
2023-05-19T03:50:16.814Z,6.80
2023-05-19T03:52:45.483Z,6.79
2023-05-19T03:55:14.637Z,6.85
2023-05-19T03:57:41.559Z,6.94
2023-05-19T04:00:11.017Z,6.97
2023-05-19T04:02:37.673Z,7.00
2023-05-19T04:05:07.190Z,7.02
2023-05-19T04:07:33.960Z,7.07
2023-05-19T04:10:00.587Z,7.09
2023-05-19T04:12:27.084Z,7.09
2023-05-19T04:14:53.575Z,7.12
2023-05-19T04:17:20.085Z,7.18
2023-05-19T04:19:46.644Z,7.24
2023-05-19T04:22:13.248Z,7.31
2023-05-19T04:24:39.826Z,7.33
2023-05-19T04:27:12.033Z,7.40
2023-05-19T04:29:39.991Z,7.48
2023-05-19T04:32:06.781Z,7.60
2023-05-19T04:34:40.288Z,7.72
2023-05-19T04:37:07.536Z,7.81
2023-05-19T04:39:34.019Z,7.88
2023-05-19T04:42:00.517Z,8.02
2023-05-19T04:44:26.991Z,8.13
2023-05-19T04:46:54.398Z,8.22
2023-05-19T04:49:21.134Z,8.33
2023-05-19T04:51:50.154Z,8.47
2023-05-19T04:54:16.803Z,8.51
2023-05-19T04:56:43.767Z,8.62
2023-05-19T04:59:10.683Z,8.72
2023-05-19T05:01:40.442Z,8.77
2023-05-19T05:04:07.415Z,8.81
2023-05-19T05:06:33.972Z,8.91
2023-05-19T05:09:00.652Z,9.02
2023-05-19T05:11:27.461Z,9.12
2023-05-19T05:13:57.840Z,9.25
2023-05-19T05:16:24.663Z,9.37
2023-05-19T05:18:51.511Z,9.48
2023-05-19T05:21:18.412Z,9.58
2023-05-19T05:23:45.172Z,9.59
2023-05-19T05:26:19.274Z,9.67
2023-05-19T05:28:45.870Z,9.72
2023-05-19T05:31:12.438Z,9.77
2023-05-19T05:33:39.103Z,9.73
2023-05-19T05:36:05.884Z,9.79
2023-05-19T05:38:32.436Z,9.89
2023-05-19T05:40:59.051Z,10.00
2023-05-19T05:43:25.738Z,10.04
2023-05-19T05:45:52.256Z,10.09
2023-05-19T05:48:19.093Z,10.26
2023-05-19T05:50:45.877Z,10.43
2023-05-19T05:53:18.225Z,10.57
2023-05-19T05:55:48.473Z,10.66
2023-05-19T05:58:16.851Z,10.78
2023-05-19T06:00:43.880Z,10.94
2023-05-19T06:03:11.204Z,10.93
2023-05-19T06:05:38.699Z,11.06
2023-05-19T06:08:05.910Z,11.01
2023-05-19T06:10:33.514Z,11.15
2023-05-19T06:13:00.269Z,11.22
2023-05-19T06:15:26.811Z,11.26
2023-05-19T06:17:54.628Z,11.35
2023-05-19T06:20:21.349Z,11.36
2023-05-19T06:22:47.875Z,11.48
2023-05-19T06:25:14.393Z,11.54
2023-05-19T06:27:41.024Z,11.63
2023-05-19T06:30:08.691Z,11.70
2023-05-19T06:32:35.347Z,11.75
2023-05-19T06:35:02.247Z,11.75
2023-05-19T06:37:28.815Z,11.83
2023-05-19T06:39:55.511Z,12.01
2023-05-19T06:42:22.822Z,12.19
2023-05-19T06:44:50.182Z,12.39
2023-05-19T06:47:17.504Z,12.60
2023-05-19T06:49:51.784Z,12.66
2023-05-19T06:52:18.379Z,12.77
2023-05-19T06:54:44.988Z,12.63
2023-05-19T06:57:11.619Z,12.64
2023-05-19T06:59:40.831Z,12.66
2023-05-19T07:02:09.193Z,12.84
2023-05-19T07:04:36.701Z,13.02
2023-05-19T07:07:03.427Z,12.95
2023-05-19T07:09:29.962Z,13.16
2023-05-19T07:11:56.548Z,13.26
2023-05-19T07:14:23.251Z,13.34
2023-05-19T07:16:49.975Z,13.57
2023-05-19T07:19:16.855Z,13.76
2023-05-19T07:21:43.479Z,13.81
2023-05-19T07:24:10.047Z,13.81
2023-05-19T07:26:36.595Z,14.07
2023-05-19T07:29:03.189Z,14.31
2023-05-19T07:31:29.878Z,14.44
2023-05-19T07:33:57.047Z,14.58
2023-05-19T07:36:23.525Z,14.79
2023-05-19T07:38:50.399Z,14.96
2023-05-19T07:41:16.943Z,15.08
2023-05-19T07:43:43.489Z,15.09
2023-05-19T07:46:10.055Z,15.16
2023-05-19T07:48:36.999Z,15.31
2023-05-19T07:51:03.713Z,15.42
2023-05-19T07:53:30.290Z,15.64
2023-05-19T07:55:58.492Z,15.52
2023-05-19T07:58:25.423Z,15.80
2023-05-19T08:00:53.157Z,15.91
2023-05-19T08:03:20.722Z,15.78
2023-05-19T08:05:47.711Z,15.90
2023-05-19T08:08:16.914Z,15.95
2023-05-19T08:10:43.716Z,16.17
2023-05-19T08:13:10.407Z,16.38
2023-05-19T08:15:37.175Z,16.42
2023-05-19T08:18:05.220Z,16.85
2023-05-19T08:20:32.391Z,17.06
2023-05-19T08:22:59.081Z,17.13
2023-05-19T08:25:25.655Z,17.15
2023-05-19T08:27:52.117Z,17.15
2023-05-19T08:30:18.665Z,17.21
2023-05-19T08:32:45.219Z,17.48
2023-05-19T08:35:11.885Z,17.32
2023-05-19T08:37:38.670Z,17.29
2023-05-19T08:40:05.963Z,17.31
2023-05-19T08:42:33.858Z,17.43
2023-05-19T08:45:02.044Z,17.79
2023-05-19T08:47:28.853Z,17.48
2023-05-19T08:50:03.816Z,17.36
2023-05-19T08:52:54.920Z,17.51
2023-05-19T08:55:41.191Z,17.62
2023-05-19T08:58:08.823Z,17.73
2023-05-19T09:00:36.033Z,17.74
2023-05-19T09:03:17.509Z,17.60
2023-05-19T09:05:46.447Z,17.35
2023-05-19T09:08:13.454Z,17.44
2023-05-19T09:10:40.050Z,17.55
2023-05-19T09:13:06.857Z,17.52
2023-05-19T09:15:36.828Z,16.88
2023-05-19T09:18:11.694Z,16.83
2023-05-19T09:20:43.351Z,17.31
2023-05-19T09:23:17.114Z,17.06
2023-05-19T09:25:51.173Z,16.84
2023-05-19T09:28:23.878Z,16.67
2023-05-19T09:30:59.145Z,16.79
2023-05-19T09:33:25.631Z,17.13
2023-05-19T09:35:52.161Z,17.27
2023-05-19T09:38:19.359Z,17.48
2023-05-19T09:40:49.197Z,18.03
2023-05-19T09:43:16.526Z,18.33
2023-05-19T09:45:43.341Z,18.25
2023-05-19T09:48:09.966Z,18.47
2023-05-19T09:50:37.306Z,18.41
2023-05-19T09:53:04.130Z,18.56
2023-05-19T09:55:32.917Z,18.31
2023-05-19T09:58:04.778Z,17.97
2023-05-19T10:00:32.705Z,18.02
2023-05-19T10:03:01.049Z,18.08
2023-05-19T10:05:28.830Z,18.05
2023-05-19T10:07:55.945Z,18.29
2023-05-19T10:10:22.919Z,18.49
2023-05-19T10:12:49.830Z,18.73
2023-05-19T10:15:20.563Z,18.21
2023-05-19T10:17:50.480Z,18.04
2023-05-19T10:20:17.767Z,18.07
2023-05-19T10:22:46.213Z,18.25
2023-05-19T10:25:15.231Z,18.11
2023-05-19T10:28:03.832Z,17.94
2023-05-19T10:30:35.829Z,18.02
2023-05-19T10:33:05.131Z,18.23
2023-05-19T10:36:16.266Z,18.49
2023-05-19T10:38:51.987Z,18.98
2023-05-19T10:41:47.109Z,19.67
2023-05-19T10:44:40.968Z,19.51
2023-05-19T10:47:08.661Z,20.63
2023-05-19T10:49:36.683Z,21.37
2023-05-19T10:52:03.908Z,21.52
2023-05-19T10:54:41.088Z,21.14
2023-05-19T10:57:08.356Z,20.40
2023-05-19T10:59:37.773Z,20.78
2023-05-19T11:02:05.804Z,21.00
2023-05-19T11:04:52.614Z,20.20
2023-05-19T11:07:20.990Z,19.84
2023-05-19T11:09:52.094Z,19.85
2023-05-19T11:12:24.828Z,19.48
2023-05-19T11:14:55.572Z,19.03
2023-05-19T11:17:25.615Z,19.07
2023-05-19T11:19:54.828Z,19.10
2023-05-19T11:22:27.934Z,19.38
2023-05-19T11:24:55.681Z,19.73
2023-05-19T11:27:25.600Z,21.51
2023-05-19T11:29:52.992Z,21.19
2023-05-19T11:32:26.840Z,21.60
2023-05-19T11:34:55.776Z,21.22
2023-05-19T11:37:22.612Z,20.07
2023-05-19T11:39:49.584Z,19.78
2023-05-19T11:42:16.635Z,19.45
2023-05-19T11:44:46.886Z,19.82
2023-05-19T11:47:14.718Z,20.58
2023-05-19T11:49:45.339Z,20.47
2023-05-19T11:52:12.035Z,20.86
2023-05-19T11:54:39.298Z,20.70
2023-05-19T11:57:09.066Z,19.43
2023-05-19T11:59:37.958Z,18.76
2023-05-19T12:02:25.935Z,19.12
2023-05-19T12:04:53.024Z,18.67
2023-05-19T12:07:23.344Z,18.93
2023-05-19T12:09:52.048Z,19.18
2023-05-19T12:12:20.644Z,18.63
2023-05-19T12:14:48.746Z,19.04
2023-05-19T12:17:17.644Z,18.74
2023-05-19T12:19:45.496Z,18.78
2023-05-19T12:22:12.666Z,18.79
2023-05-19T12:24:40.153Z,18.56
2023-05-19T12:27:18.255Z,20.05
2023-05-19T12:29:53.544Z,20.69
2023-05-19T12:32:27.829Z,20.01
2023-05-19T12:34:57.821Z,19.24
2023-05-19T12:37:29.901Z,18.77
2023-05-19T12:39:57.242Z,18.91
2023-05-19T12:42:24.220Z,19.91
2023-05-19T12:44:52.571Z,21.42
2023-05-19T12:47:20.183Z,21.68
2023-05-19T12:49:56.777Z,23.31
2023-05-19T12:52:23.769Z,23.65
2023-05-19T12:54:57.672Z,22.00
2023-05-19T12:57:25.822Z,20.42
2023-05-19T12:59:53.082Z,20.98
2023-05-19T13:02:20.908Z,22.36
2023-05-19T13:04:48.586Z,23.80
2023-05-19T13:07:15.109Z,23.91
2023-05-19T13:09:42.267Z,22.83
2023-05-19T13:12:08.942Z,20.86
2023-05-19T13:14:35.443Z,19.57
2023-05-19T13:17:02.043Z,19.59
2023-05-19T13:19:29.113Z,19.68
2023-05-19T13:21:55.710Z,19.32
2023-05-19T13:24:22.307Z,20.45
2023-05-19T13:26:48.912Z,20.23
2023-05-19T13:29:15.433Z,20.11
2023-05-19T13:31:42.258Z,19.99
2023-05-19T13:34:08.935Z,20.25
2023-05-19T13:36:36.488Z,20.77
2023-05-19T13:39:03.370Z,20.60
2023-05-19T13:41:29.990Z,20.89
2023-05-19T13:43:59.242Z,20.56
2023-05-19T13:46:36.690Z,20.24
2023-05-19T13:49:10.598Z,19.75
2023-05-19T13:51:37.667Z,19.46
2023-05-19T13:54:05.044Z,20.03
2023-05-19T13:56:31.894Z,20.34
2023-05-19T13:58:58.446Z,20.60
2023-05-19T14:01:25.428Z,19.69
2023-05-19T14:03:52.538Z,19.83
2023-05-19T14:06:19.914Z,20.05
2023-05-19T14:08:46.892Z,19.89
2023-05-19T14:11:21.634Z,20.76
2023-05-19T14:13:52.916Z,21.11
2023-05-19T14:16:21.865Z,21.10
2023-05-19T14:18:49.074Z,22.94
2023-05-19T14:21:15.747Z,24.81
2023-05-19T14:23:42.281Z,24.07
2023-05-19T14:26:08.817Z,25.49
2023-05-19T14:28:35.320Z,24.52
2023-05-19T14:31:01.881Z,26.02
2023-05-19T14:33:29.721Z,26.22
2023-05-19T14:35:59.952Z,24.83
2023-05-19T14:38:27.689Z,26.05
2023-05-19T14:40:55.483Z,25.52
2023-05-19T14:43:22.025Z,25.48
2023-05-19T14:45:49.112Z,26.71
2023-05-19T14:48:15.887Z,27.12
2023-05-19T14:50:42.447Z,25.21
2023-05-19T14:53:09.008Z,23.49
2023-05-19T14:55:35.529Z,22.48
2023-05-19T14:58:03.373Z,22.11
2023-05-19T15:00:31.136Z,19.56
2023-05-19T15:02:57.901Z,19.25
2023-05-19T15:05:24.425Z,19.63
2023-05-19T15:07:50.997Z,19.84
2023-05-19T15:10:20.376Z,19.71
2023-05-19T15:12:47.036Z,19.64
2023-05-19T15:15:14.215Z,19.76
2023-05-19T15:17:40.833Z,19.53
2023-05-19T15:20:07.722Z,19.46
2023-05-19T15:22:34.430Z,19.35
2023-05-19T15:25:00.946Z,18.93
2023-05-19T15:27:27.601Z,18.28
2023-05-19T15:29:54.151Z,18.85
2023-05-19T15:32:20.631Z,18.96
2023-05-19T15:34:47.225Z,19.23
2023-05-19T15:37:13.824Z,19.79
2023-05-19T15:39:40.383Z,20.52
2023-05-19T15:42:06.913Z,20.65
2023-05-19T15:44:33.508Z,20.64
2023-05-19T15:47:00.326Z,20.68
2023-05-19T15:49:26.848Z,20.07
2023-05-19T15:51:53.326Z,19.52
2023-05-19T15:54:19.842Z,19.54
2023-05-19T15:56:46.424Z,19.46
2023-05-19T15:59:12.916Z,20.22
2023-05-19T16:01:39.583Z,20.21
2023-05-19T16:04:06.296Z,19.40
2023-05-19T16:06:32.928Z,19.11
2023-05-19T16:08:59.435Z,18.67
2023-05-19T16:11:27.247Z,18.26
2023-05-19T16:13:53.811Z,17.96
2023-05-19T16:16:20.486Z,17.72
2023-05-19T16:18:47.052Z,17.73
2023-05-19T16:21:13.602Z,19.26
2023-05-19T16:23:40.117Z,19.75
2023-05-19T16:26:06.718Z,19.98
2023-05-19T16:28:33.250Z,19.92
2023-05-19T16:31:00.260Z,20.44
2023-05-19T16:33:27.861Z,20.04
2023-05-19T16:35:54.410Z,19.72
2023-05-19T16:38:21.168Z,19.16
2023-05-19T16:40:47.718Z,19.18
2023-05-19T16:43:14.227Z,18.60
2023-05-19T16:45:40.913Z,18.24
2023-05-19T16:48:07.518Z,18.34
2023-05-19T16:50:34.314Z,18.11
2023-05-19T16:53:01.110Z,17.87
2023-05-19T16:55:27.600Z,17.49
2023-05-19T16:57:54.170Z,17.20
2023-05-19T17:00:20.913Z,17.00
2023-05-19T17:02:47.717Z,16.94
2023-05-19T17:05:14.397Z,16.89
2023-05-19T17:07:40.912Z,16.95
2023-05-19T17:10:08.005Z,17.04
2023-05-19T17:12:34.517Z,17.14
2023-05-19T17:15:01.463Z,17.08
2023-05-19T17:17:28.112Z,17.01
2023-05-19T17:19:54.827Z,16.88
2023-05-19T17:22:21.391Z,16.80
2023-05-19T17:24:47.927Z,16.83
2023-05-19T17:27:15.075Z,16.88
2023-05-19T17:29:41.692Z,16.81
2023-05-19T17:32:08.295Z,16.65
2023-05-19T17:34:34.946Z,16.55
2023-05-19T17:37:01.530Z,16.47
2023-05-19T17:39:28.097Z,16.40
2023-05-19T17:41:54.630Z,16.37
2023-05-19T17:44:21.304Z,16.36
2023-05-19T17:46:47.902Z,16.28
2023-05-19T17:49:15.304Z,16.27
2023-05-19T17:51:42.065Z,16.18
2023-05-19T17:54:08.923Z,16.15
2023-05-19T17:56:41.514Z,16.06
2023-05-19T17:59:08.380Z,15.93
2023-05-19T18:01:35.267Z,15.96
2023-05-19T18:04:02.373Z,15.88
2023-05-19T18:06:31.329Z,15.93
2023-05-19T18:09:00.727Z,15.93
2023-05-19T18:11:27.568Z,15.90
2023-05-19T18:13:54.055Z,15.94
2023-05-19T18:16:20.579Z,15.92
2023-05-19T18:18:50.313Z,15.87
2023-05-19T18:21:17.987Z,15.95
2023-05-19T18:23:45.947Z,15.93
2023-05-19T18:26:13.223Z,16.00
2023-05-19T18:28:40.689Z,15.99
2023-05-19T18:31:08.872Z,15.89
2023-05-19T18:33:35.478Z,15.85
2023-05-19T18:36:02.104Z,15.86
2023-05-19T18:38:28.641Z,15.78
2023-05-19T18:40:56.597Z,15.65
2023-05-19T18:43:23.269Z,15.53
2023-05-19T18:45:49.853Z,15.37
2023-05-19T18:48:16.586Z,15.27
2023-05-19T18:50:44.552Z,15.15
2023-05-19T18:53:11.854Z,15.11
2023-05-19T18:55:38.704Z,15.00
2023-05-19T18:58:06.123Z,14.95
2023-05-19T19:00:33.242Z,14.79
2023-05-19T19:03:00.097Z,14.63
2023-05-19T19:05:26.656Z,14.55
2023-05-19T19:07:53.390Z,14.46
2023-05-19T19:10:20.095Z,14.38
2023-05-19T19:12:46.692Z,14.32
2023-05-19T19:15:13.273Z,14.25
2023-05-19T19:17:42.715Z,14.19
2023-05-19T19:20:09.741Z,14.17
2023-05-19T19:22:36.390Z,14.06
2023-05-19T19:25:03.122Z,13.94
2023-05-19T19:27:31.249Z,13.94
2023-05-19T19:29:58.618Z,13.90
2023-05-19T19:32:25.632Z,13.88
2023-05-19T19:34:53.272Z,13.87
2023-05-19T19:37:19.820Z,13.87
2023-05-19T19:39:46.656Z,13.79
2023-05-19T19:42:13.225Z,13.74
2023-05-19T19:44:39.960Z,13.71
2023-05-19T19:47:06.514Z,13.77
2023-05-19T19:49:33.549Z,13.75
2023-05-19T19:52:00.212Z,13.76
2023-05-19T19:54:27.041Z,13.61
2023-05-19T19:56:53.601Z,13.53
2023-05-19T19:59:20.340Z,13.50
2023-05-19T20:01:46.956Z,13.43
2023-05-19T20:04:13.591Z,13.38
2023-05-19T20:06:40.425Z,13.40
2023-05-19T20:09:07.190Z,13.39
2023-05-19T20:11:33.867Z,13.41
2023-05-19T20:14:00.396Z,13.38
2023-05-19T20:16:27.136Z,13.31
2023-05-19T20:18:53.975Z,13.24
2023-05-19T20:21:20.790Z,13.25
2023-05-19T20:23:47.306Z,13.23
2023-05-19T20:26:14.800Z,13.22
2023-05-19T20:28:41.531Z,13.20
2023-05-19T20:31:08.155Z,13.15
2023-05-19T20:33:35.274Z,13.11
2023-05-19T20:36:01.883Z,13.06
2023-05-19T20:38:28.540Z,12.95
2023-05-19T20:40:55.041Z,12.89
2023-05-19T20:43:21.670Z,12.83
2023-05-19T20:45:48.347Z,12.77
2023-05-19T20:48:15.932Z,12.75
2023-05-19T20:50:42.716Z,12.66
2023-05-19T20:53:09.232Z,12.60
2023-05-19T20:55:38.750Z,12.53
2023-05-19T20:58:05.504Z,12.47
2023-05-19T21:00:32.311Z,12.43
2023-05-19T21:02:59.239Z,12.30
2023-05-19T21:05:25.811Z,12.28
2023-05-19T21:07:52.369Z,12.21
2023-05-19T21:10:18.943Z,12.23
2023-05-19T21:12:46.314Z,12.26
2023-05-19T21:15:13.704Z,12.24
2023-05-19T21:17:40.672Z,12.16
2023-05-19T21:20:07.982Z,12.08
2023-05-19T21:22:35.820Z,12.06
2023-05-19T21:25:02.604Z,12.03
2023-05-19T21:27:29.364Z,12.03
2023-05-19T21:29:55.952Z,12.08
2023-05-19T21:32:22.456Z,11.97
2023-05-19T21:34:49.048Z,11.89
2023-05-19T21:37:17.261Z,11.89
2023-05-19T21:39:44.185Z,11.81
2023-05-19T21:42:10.722Z,11.73
2023-05-19T21:44:37.302Z,11.79
2023-05-19T21:47:04.002Z,11.75
2023-05-19T21:49:31.386Z,11.66
2023-05-19T21:51:58.196Z,11.65
2023-05-19T21:54:24.762Z,11.60
2023-05-19T21:56:51.274Z,11.51
2023-05-19T21:59:17.898Z,11.45
2023-05-19T22:01:44.608Z,11.38
2023-05-19T22:04:11.548Z,11.31
2023-05-19T22:06:38.160Z,11.29
2023-05-19T22:09:04.741Z,11.27
2023-05-19T22:11:31.364Z,11.20
2023-05-19T22:13:57.948Z,11.15
2023-05-19T22:16:24.577Z,11.12
2023-05-19T22:18:51.601Z,11.05
2023-05-19T22:21:18.284Z,10.96
2023-05-19T22:23:44.877Z,10.88
2023-05-19T22:26:11.408Z,10.84
2023-05-19T22:28:37.952Z,10.78
2023-05-19T22:31:04.622Z,10.79
2023-05-19T22:33:31.204Z,10.68
2023-05-19T22:35:57.879Z,10.61
2023-05-19T22:38:24.464Z,10.57
2023-05-19T22:40:51.083Z,10.56
2023-05-19T22:43:17.658Z,10.51
2023-05-19T22:45:44.400Z,10.49
2023-05-19T22:48:11.514Z,10.52
2023-05-19T22:50:38.184Z,10.51
2023-05-19T22:53:04.844Z,10.61
2023-05-19T22:55:31.684Z,10.60
2023-05-19T22:57:58.414Z,10.55
2023-05-19T23:00:24.937Z,10.53
2023-05-19T23:02:51.654Z,10.51
2023-05-19T23:05:18.175Z,10.51
2023-05-19T23:07:44.682Z,10.55
2023-05-19T23:10:11.296Z,10.58
2023-05-19T23:12:37.846Z,10.61
2023-05-19T23:15:04.941Z,10.62
2023-05-19T23:17:31.581Z,10.66
2023-05-19T23:19:58.170Z,10.68
2023-05-19T23:22:24.703Z,10.71
2023-05-19T23:24:51.322Z,10.76
2023-05-19T23:27:17.853Z,10.79
2023-05-19T23:29:51.185Z,10.80
2023-05-19T23:32:17.913Z,10.77
2023-05-19T23:34:44.489Z,10.80
2023-05-19T23:37:11.727Z,10.81
2023-05-19T23:39:38.330Z,10.82
2023-05-19T23:42:05.748Z,10.79
2023-05-19T23:44:32.385Z,10.73
2023-05-19T23:46:59.020Z,10.69
2023-05-19T23:49:25.653Z,10.66
2023-05-19T23:51:52.750Z,10.66
2023-05-19T23:54:19.428Z,10.69
2023-05-19T23:56:46.154Z,10.64
2023-05-19T23:59:12.743Z,10.62
